createdAt,value
2019-04-20T00:01:23.487Z,18.30
2019-04-20T00:03:49.101Z,18.30
2019-04-20T00:06:19.376Z,18.30
2019-04-20T00:08:47.697Z,17.70
2019-04-20T00:11:50.728Z,18.30
2019-04-20T00:14:13.770Z,18.00
2019-04-20T00:16:35.782Z,18.20
2019-04-20T00:19:05.301Z,18.00
2019-04-20T00:21:58.538Z,18.10
2019-04-20T00:24:30.150Z,18.40
2019-04-20T00:27:37.122Z,18.00
2019-04-20T00:29:58.728Z,17.80
2019-04-20T00:32:25.557Z,18.00
2019-04-20T00:34:45.081Z,17.90
2019-04-20T00:37:31.949Z,18.00
2019-04-20T00:39:59.807Z,18.10
2019-04-20T00:42:34.033Z,17.80
2019-04-20T00:45:06.786Z,17.90
2019-04-20T00:47:37.238Z,17.40
2019-04-20T00:50:09.222Z,17.80
2019-04-20T00:52:54.202Z,17.80
2019-04-20T00:55:13.118Z,17.90
2019-04-20T00:57:47.703Z,18.60
2019-04-20T01:00:54.253Z,17.70
2019-04-20T01:03:14.287Z,17.80
2019-04-20T01:05:59.659Z,17.50
2019-04-20T01:08:40.785Z,17.50
2019-04-20T01:11:08.457Z,17.40
2019-04-20T01:13:42.082Z,17.50
2019-04-20T01:16:14.643Z,17.50
2019-04-20T01:18:54.160Z,17.50
2019-04-20T01:21:26.420Z,17.30
2019-04-20T01:23:56.553Z,17.50
2019-04-20T01:26:43.501Z,17.50
2019-04-20T01:29:23.998Z,17.00
2019-04-20T01:31:57.095Z,17.40
2019-04-20T01:34:26.681Z,17.40
2019-04-20T01:36:56.010Z,17.40
2019-04-20T01:39:18.379Z,17.60
2019-04-20T01:41:39.334Z,17.40
2019-04-20T01:44:07.154Z,17.40
2019-04-20T01:46:58.718Z,17.40
2019-04-20T01:49:28.619Z,17.10
2019-04-20T01:52:04.876Z,17.40
2019-04-20T01:54:38.691Z,17.30
2019-04-20T01:57:04.683Z,17.20
2019-04-20T01:59:40.310Z,16.80
2019-04-20T02:02:22.522Z,17.20
2019-04-20T02:05:00.574Z,17.20
2019-04-20T02:07:28.452Z,16.80
2019-04-20T02:09:58.390Z,17.10
2019-04-20T02:12:28.444Z,17.10
2019-04-20T02:14:56.073Z,17.00
2019-04-20T02:17:51.908Z,17.00
2019-04-20T02:20:34.586Z,16.70
2019-04-20T02:22:57.038Z,17.00
2019-04-20T02:25:10.041Z,16.90
2019-04-20T02:27:45.442Z,16.90
2019-04-20T02:30:40.922Z,16.80
2019-04-20T02:33:35.683Z,16.80
2019-04-20T02:36:04.963Z,16.80
2019-04-20T02:39:05.787Z,16.80
2019-04-20T02:41:11.778Z,16.80
2019-04-20T02:44:08.608Z,16.70
2019-04-20T02:46:12.817Z,15.60
2019-04-20T02:48:45.313Z,16.70
2019-04-20T02:51:09.046Z,16.70
2019-04-20T02:53:55.188Z,16.60
2019-04-20T02:56:12.889Z,16.60
2019-04-20T02:58:43.601Z,16.70
2019-04-20T03:01:04.434Z,16.10
2019-04-20T03:03:22.788Z,16.50
2019-04-20T03:05:52.064Z,16.40
2019-04-20T03:08:26.780Z,16.50
2019-04-20T03:11:22.525Z,16.40
2019-04-20T03:13:53.237Z,16.20
2019-04-20T03:16:16.729Z,16.40
2019-04-20T03:18:44.589Z,16.20
2019-04-20T03:21:21.448Z,16.30
2019-04-20T03:24:00.954Z,16.20
2019-04-20T03:26:40.239Z,16.20
2019-04-20T03:29:31.940Z,16.30
2019-04-20T03:32:33.030Z,16.20
2019-04-20T03:37:07.375Z,16.20
2019-04-20T03:39:29.856Z,16.20
2019-04-20T03:41:43.204Z,16.10
2019-04-20T03:44:12.610Z,16.00
2019-04-20T03:46:45.619Z,16.00
2019-04-20T03:49:27.868Z,16.40
2019-04-20T03:51:57.399Z,16.00
2019-04-20T03:54:30.822Z,15.90
2019-04-20T03:57:19.664Z,15.90
2019-04-20T03:59:51.921Z,15.20
2019-04-20T04:02:57.678Z,15.10
2019-04-20T04:05:17.630Z,15.80
2019-04-20T04:07:38.559Z,15.80
2019-04-20T04:10:16.003Z,15.70
2019-04-20T04:13:23.095Z,15.70
2019-04-20T04:15:57.567Z,15.60
2019-04-20T04:18:27.757Z,15.70
2019-04-20T04:20:57.300Z,15.60
2019-04-20T04:23:36.702Z,15.70
2019-04-20T04:26:14.356Z,15.80
2019-04-20T04:28:37.151Z,15.90
2019-04-20T04:31:11.035Z,15.90
2019-04-20T04:33:51.909Z,16.10
2019-04-20T04:36:02.689Z,16.00
2019-04-20T04:38:37.736Z,16.00
2019-04-20T04:43:32.636Z,15.70
2019-04-20T04:45:44.767Z,15.70
2019-04-20T04:48:18.353Z,15.80
2019-04-20T04:50:49.516Z,15.60
2019-04-20T04:53:24.740Z,15.60
2019-04-20T04:56:00.413Z,15.50
2019-04-20T04:58:23.548Z,15.40
2019-04-20T05:01:16.602Z,15.40
2019-04-20T05:04:02.992Z,15.10
2019-04-20T05:06:41.442Z,15.40
2019-04-20T05:09:00.797Z,15.00
2019-04-20T05:11:27.808Z,15.30
2019-04-20T05:14:03.087Z,15.30
2019-04-20T05:16:45.129Z,15.30
2019-04-20T05:19:31.174Z,15.30
2019-04-20T05:21:57.486Z,15.40
2019-04-20T05:24:42.718Z,15.30
2019-04-20T05:27:44.043Z,15.30
2019-04-20T05:29:46.782Z,15.20
2019-04-20T05:32:23.619Z,15.30
2019-04-20T05:35:06.969Z,15.10
2019-04-20T05:37:53.708Z,15.20
2019-04-20T05:40:09.376Z,15.30
2019-04-20T05:42:35.588Z,15.30
2019-04-20T05:45:01.415Z,15.30
2019-04-20T05:47:33.423Z,15.30
2019-04-20T05:49:56.980Z,15.40
2019-04-20T05:55:03.029Z,15.40
2019-04-20T05:57:52.369Z,15.00
2019-04-20T06:00:26.732Z,15.40
2019-04-20T06:03:00.491Z,15.20
2019-04-20T06:05:37.207Z,15.80
2019-04-20T06:07:59.304Z,15.50
2019-04-20T06:10:31.896Z,15.50
2019-04-20T06:13:00.204Z,15.50
2019-04-20T06:15:42.922Z,15.60
2019-04-20T06:18:19.033Z,14.60
2019-04-20T06:20:50.292Z,15.70
2019-04-20T06:23:45.606Z,15.70
2019-04-20T06:26:20.694Z,15.80
2019-04-20T06:28:34.196Z,15.80
2019-04-20T06:30:57.865Z,15.70
2019-04-20T06:36:47.152Z,15.90
2019-04-20T06:39:17.471Z,15.90
2019-04-20T06:42:03.298Z,16.00
2019-04-20T06:44:16.465Z,16.10
2019-04-20T06:46:51.519Z,16.10
2019-04-20T06:49:17.011Z,16.10
2019-04-20T06:51:52.734Z,16.20
2019-04-20T06:54:47.177Z,16.20
2019-04-20T06:57:19.621Z,16.20
2019-04-20T06:59:43.428Z,16.20
2019-04-20T07:02:24.573Z,16.30
2019-04-20T07:04:55.954Z,16.30
2019-04-20T07:07:14.623Z,16.40
2019-04-20T07:09:58.318Z,17.10
2019-04-20T07:12:08.071Z,16.60
2019-04-20T07:14:34.009Z,16.10
2019-04-20T07:17:26.905Z,16.60
2019-04-20T07:19:50.463Z,16.50
2019-04-20T07:23:09.755Z,16.80
2019-04-20T07:25:19.350Z,16.90
2019-04-20T07:28:05.386Z,16.90
2019-04-20T07:30:35.534Z,16.70
2019-04-20T07:33:04.106Z,17.00
2019-04-20T07:35:35.654Z,17.00
2019-04-20T07:40:31.387Z,17.20
2019-04-20T07:43:00.252Z,17.20
2019-04-20T07:45:44.290Z,17.30
2019-04-20T07:48:09.721Z,17.20
2019-04-20T07:50:25.125Z,17.40
2019-04-20T07:52:51.085Z,17.50
2019-04-20T07:57:53.780Z,17.60
2019-04-20T08:00:38.602Z,17.70
2019-04-20T08:03:22.089Z,17.70
2019-04-20T08:05:45.814Z,17.90
2019-04-20T08:08:22.972Z,17.90
2019-04-20T08:10:48.193Z,18.00
2019-04-20T08:16:06.682Z,18.10
2019-04-20T08:18:29.326Z,18.20
2019-04-20T08:20:52.801Z,18.30
2019-04-20T08:23:17.128Z,18.30
2019-04-20T08:25:42.851Z,18.40
2019-04-20T08:28:16.781Z,18.50
2019-04-20T08:31:08.845Z,18.30
2019-04-20T08:33:55.265Z,18.70
2019-04-20T08:36:18.598Z,18.70
2019-04-20T08:39:11.495Z,18.80
2019-04-20T08:41:14.821Z,18.80
2019-04-20T08:43:53.961Z,18.90
2019-04-20T08:46:15.065Z,19.00
2019-04-20T08:48:46.620Z,19.10
2019-04-20T08:51:13.153Z,19.10
2019-04-20T08:53:41.826Z,19.30
2019-04-20T08:56:07.023Z,19.40
2019-04-20T08:58:22.573Z,19.40
2019-04-20T09:00:55.394Z,19.30
2019-04-20T09:03:26.649Z,19.60
2019-04-20T09:05:58.950Z,19.00
2019-04-20T09:08:26.310Z,19.70
2019-04-20T09:11:05.932Z,19.80
2019-04-20T09:13:26.982Z,19.90
2019-04-20T09:15:47.054Z,20.10
2019-04-20T09:18:31.336Z,20.80
2019-04-20T09:21:01.292Z,20.00
2019-04-20T09:23:42.384Z,20.40
2019-04-20T09:26:15.988Z,20.60
2019-04-20T09:28:56.802Z,20.30
2019-04-20T09:31:31.307Z,20.60
2019-04-20T09:34:14.318Z,20.90
2019-04-20T09:37:17.470Z,21.00
2019-04-20T09:40:02.987Z,21.10
2019-04-20T09:42:15.061Z,21.20
2019-04-20T09:44:48.791Z,21.30
2019-04-20T09:47:39.308Z,21.40
2019-04-20T09:50:21.397Z,21.10
2019-04-20T09:52:49.058Z,21.70
2019-04-20T09:55:14.679Z,21.60
2019-04-20T09:57:51.272Z,21.90
2019-04-20T10:00:15.861Z,21.80
2019-04-20T10:02:32.798Z,22.00
2019-04-20T10:04:57.870Z,22.10
2019-04-20T10:07:29.785Z,22.30
2019-04-20T10:09:55.789Z,22.40
2019-04-20T10:12:24.254Z,22.50
2019-04-20T10:14:53.089Z,22.60
2019-04-20T10:17:20.667Z,22.70
2019-04-20T10:19:48.507Z,22.80
2019-04-20T10:22:16.333Z,23.00
2019-04-20T10:24:45.932Z,23.10
2019-04-20T10:27:14.535Z,23.40
2019-04-20T10:29:42.106Z,23.50
2019-04-20T10:32:12.769Z,23.80
2019-04-20T10:34:38.997Z,23.90
2019-04-20T10:37:13.513Z,24.10
2019-04-20T10:39:42.623Z,24.20
2019-04-20T10:42:10.604Z,24.30
2019-04-20T10:44:38.975Z,24.40
2019-04-20T10:47:07.289Z,24.60
2019-04-20T10:49:55.330Z,24.70
2019-04-20T10:52:23.784Z,24.70
2019-04-20T10:54:52.290Z,24.90
2019-04-20T10:57:21.515Z,25.10
2019-04-20T10:59:49.804Z,25.10
2019-04-20T11:02:37.393Z,25.30
2019-04-20T11:05:06.422Z,25.30
2019-04-20T11:07:34.683Z,25.50
2019-04-20T11:10:13.370Z,25.80
2019-04-20T11:12:32.535Z,25.70
2019-04-20T11:15:00.651Z,25.80
2019-04-20T11:17:29.941Z,25.90
2019-04-20T11:19:59.167Z,25.80
2019-04-20T11:22:28.297Z,25.80
2019-04-20T11:25:16.487Z,26.10
2019-04-20T11:27:44.185Z,26.10
2019-04-20T11:30:12.072Z,26.30
2019-04-20T11:32:40.260Z,26.30
2019-04-20T11:35:18.039Z,26.40
2019-04-20T11:37:37.728Z,26.40
2019-04-20T11:40:06.493Z,26.40
2019-04-20T11:42:53.632Z,26.60
2019-04-20T11:45:22.500Z,26.50
2019-04-20T11:47:51.472Z,26.90
2019-04-20T11:50:19.838Z,26.90
2019-04-20T11:52:49.912Z,26.90
2019-04-20T11:55:18.141Z,27.00
2019-04-20T11:57:47.182Z,27.20
2019-04-20T12:00:18.961Z,27.40
2019-04-20T12:03:13.899Z,27.40
2019-04-20T12:05:40.530Z,27.00
2019-04-20T12:08:07.040Z,27.60
2019-04-20T12:10:35.045Z,27.60
2019-04-20T12:13:03.813Z,27.20
2019-04-20T12:15:34.773Z,27.90
2019-04-20T12:18:01.929Z,27.80
2019-04-20T12:20:29.504Z,27.90
2019-04-20T12:22:58.157Z,27.90
2019-04-20T12:25:26.005Z,28.00
2019-04-20T12:28:03.933Z,28.10
2019-04-20T12:30:31.794Z,27.90
2019-04-20T12:33:01.916Z,27.90
2019-04-20T12:35:50.111Z,28.10
2019-04-20T12:38:19.024Z,28.20
2019-04-20T12:40:48.270Z,28.50
2019-04-20T12:43:17.352Z,28.70
2019-04-20T12:45:45.431Z,28.70
2019-04-20T12:48:13.473Z,28.80
2019-04-20T12:50:41.577Z,29.30
2019-04-20T12:53:09.071Z,29.00
2019-04-20T12:55:36.873Z,29.00
2019-04-20T12:58:28.418Z,29.10
2019-04-20T13:01:17.757Z,29.30
2019-04-20T13:03:45.658Z,28.90
2019-04-20T13:06:14.063Z,29.30
2019-04-20T13:09:03.764Z,29.40
2019-04-20T13:12:05.348Z,29.60
2019-04-20T13:15:04.497Z,29.30
2019-04-20T13:17:32.409Z,29.70
2019-04-20T13:20:00.272Z,29.80
2019-04-20T13:22:28.675Z,29.90
2019-04-20T13:25:16.939Z,29.80
2019-04-20T13:27:45.051Z,29.80
2019-04-20T13:30:32.317Z,30.10
2019-04-20T13:32:59.860Z,30.30
2019-04-20T13:35:48.122Z,30.30
2019-04-20T13:38:16.227Z,29.90
2019-04-20T13:40:44.005Z,30.20
2019-04-20T13:43:12.079Z,30.30
2019-04-20T13:45:39.933Z,30.30
2019-04-20T13:48:08.907Z,30.40
2019-04-20T13:50:38.161Z,30.50
2019-04-20T13:53:07.168Z,30.60
2019-04-20T13:55:35.919Z,30.60
2019-04-20T13:58:09.666Z,30.70
2019-04-20T14:00:45.075Z,30.70
2019-04-20T14:03:14.434Z,30.70
2019-04-20T14:05:42.589Z,30.60
2019-04-20T14:08:11.228Z,31.20
2019-04-20T14:10:41.714Z,30.90
2019-04-20T14:13:14.893Z,30.70
2019-04-20T14:15:38.728Z,30.80
2019-04-20T14:18:06.969Z,30.80
2019-04-20T14:20:36.114Z,30.80
2019-04-20T14:23:05.184Z,30.80
2019-04-20T14:25:33.261Z,30.30
2019-04-20T14:28:00.958Z,30.70
2019-04-20T14:30:29.016Z,30.70
2019-04-20T14:32:56.911Z,30.60
2019-04-20T14:35:24.967Z,30.70
2019-04-20T14:38:13.131Z,30.50
2019-04-20T14:40:42.159Z,30.40
2019-04-20T14:43:11.051Z,30.40
2019-04-20T14:45:38.867Z,30.50
2019-04-20T14:48:07.837Z,30.40
2019-04-20T14:50:35.879Z,30.40
2019-04-20T14:53:03.698Z,30.30
2019-04-20T14:55:31.433Z,30.20
2019-04-20T14:58:03.744Z,30.20
2019-04-20T15:00:51.005Z,30.50
2019-04-20T15:03:33.150Z,30.40
2019-04-20T15:06:03.128Z,30.40
2019-04-20T15:08:30.455Z,30.00
2019-04-20T15:10:58.795Z,30.50
2019-04-20T15:13:26.883Z,30.40
2019-04-20T15:15:54.900Z,30.40
2019-04-20T15:18:25.004Z,30.50
2019-04-20T15:21:13.808Z,30.50
2019-04-20T15:23:41.549Z,30.50
2019-04-20T15:26:10.600Z,29.70
2019-04-20T15:28:38.633Z,30.20
2019-04-20T15:31:26.025Z,30.30
2019-04-20T15:33:54.845Z,30.10
2019-04-20T15:36:22.519Z,30.10
2019-04-20T15:38:51.283Z,30.10
2019-04-20T15:41:18.934Z,29.80
2019-04-20T15:43:46.849Z,29.70
2019-04-20T15:46:15.306Z,29.40
2019-04-20T15:49:02.412Z,29.50
2019-04-20T15:51:30.213Z,29.20
2019-04-20T15:53:57.796Z,29.30
2019-04-20T15:56:25.269Z,29.30
2019-04-20T15:58:54.293Z,29.20
2019-04-20T16:01:26.005Z,28.90
2019-04-20T16:03:57.624Z,29.10
2019-04-20T16:06:25.475Z,29.10
2019-04-20T16:08:56.462Z,29.00
2019-04-20T16:11:44.730Z,29.00
2019-04-20T16:14:13.602Z,28.80
2019-04-20T16:16:42.379Z,28.50
2019-04-20T16:19:19.547Z,28.80
2019-04-20T16:21:39.703Z,28.80
2019-04-20T16:24:13.033Z,28.80
2019-04-20T16:27:13.621Z,28.90
2019-04-20T16:29:41.898Z,28.80
2019-04-20T16:32:09.807Z,28.60
2019-04-20T16:34:38.350Z,28.50
2019-04-20T16:37:06.502Z,28.50
2019-04-20T16:39:34.381Z,28.40
2019-04-20T16:42:02.389Z,28.30
2019-04-20T16:44:31.315Z,28.30
2019-04-20T16:47:00.389Z,28.10
2019-04-20T16:49:28.787Z,28.00
2019-04-20T16:52:16.811Z,28.10
2019-04-20T16:54:44.422Z,27.40
2019-04-20T16:57:31.896Z,27.70
2019-04-20T17:00:01.040Z,27.70
2019-04-20T17:02:29.964Z,27.60
2019-04-20T17:04:58.798Z,27.60
2019-04-20T17:07:39.280Z,27.50
2019-04-20T17:10:07.996Z,27.40
2019-04-20T17:12:35.875Z,27.40
2019-04-20T17:15:05.433Z,28.10
2019-04-20T17:17:33.639Z,27.30
2019-04-20T17:20:01.893Z,26.90
2019-04-20T17:22:29.786Z,25.90
2019-04-20T17:24:58.263Z,26.90
2019-04-20T17:28:11.169Z,26.90
2019-04-20T17:30:58.975Z,26.50
2019-04-20T17:33:53.359Z,26.50
2019-04-20T17:36:33.593Z,26.70
2019-04-20T17:39:06.243Z,26.60
2019-04-20T17:41:49.923Z,26.40
2019-04-20T17:44:15.764Z,26.30
2019-04-20T17:46:44.326Z,26.30
2019-04-20T17:49:14.159Z,26.20
2019-04-20T17:51:47.962Z,26.20
2019-04-20T17:54:22.095Z,26.20
2019-04-20T17:56:49.982Z,26.10
2019-04-20T17:59:40.040Z,26.00
2019-04-20T18:02:33.317Z,25.70
2019-04-20T18:05:37.007Z,25.70
2019-04-20T18:08:07.651Z,25.60
2019-04-20T18:10:26.009Z,25.60
2019-04-20T18:13:06.270Z,25.50
2019-04-20T18:15:43.837Z,25.30
2019-04-20T18:18:42.144Z,25.20
2019-04-20T18:21:34.877Z,25.20
2019-04-20T18:24:13.742Z,24.90
2019-04-20T18:26:52.168Z,25.00
2019-04-20T18:29:23.936Z,24.80
2019-04-20T18:32:01.879Z,24.70
2019-04-20T18:34:57.989Z,24.40
2019-04-20T18:37:22.067Z,24.60
2019-04-20T18:39:58.893Z,24.50
2019-04-20T18:42:30.410Z,24.40
2019-04-20T18:45:08.940Z,24.30
2019-04-20T18:47:42.139Z,24.30
2019-04-20T18:50:00.225Z,24.20
2019-04-20T18:52:40.055Z,24.10
2019-04-20T18:55:18.927Z,24.00
2019-04-20T18:57:38.324Z,23.90
2019-04-20T19:00:07.933Z,23.80
2019-04-20T19:02:40.990Z,23.80
2019-04-20T19:05:07.315Z,23.70
2019-04-20T19:07:41.474Z,23.70
2019-04-20T19:10:14.784Z,23.60
2019-04-20T19:12:44.995Z,23.50
2019-04-20T19:15:37.446Z,23.40
2019-04-20T19:18:06.303Z,23.40
2019-04-20T19:20:28.550Z,23.30
2019-04-20T19:22:55.983Z,23.20
2019-04-20T19:25:30.212Z,23.20
2019-04-20T19:27:55.987Z,23.10
2019-04-20T19:30:49.934Z,23.10
2019-04-20T19:33:27.659Z,22.90
2019-04-20T19:35:52.220Z,23.00
2019-04-20T19:38:43.149Z,22.90
2019-04-20T19:41:16.210Z,22.70
2019-04-20T19:43:32.835Z,22.70
2019-04-20T19:46:35.399Z,22.70
2019-04-20T19:48:39.564Z,22.70
2019-04-20T19:51:19.426Z,22.60
2019-04-20T19:53:50.714Z,22.40
2019-04-20T19:56:06.342Z,22.40
2019-04-20T19:58:34.399Z,22.40
2019-04-20T20:00:56.300Z,22.20
2019-04-20T20:03:23.913Z,22.00
2019-04-20T20:06:18.810Z,22.10
2019-04-20T20:08:42.321Z,22.00
2019-04-20T20:11:21.766Z,22.10
2019-04-20T20:13:44.732Z,22.00
2019-04-20T20:16:15.976Z,22.00
2019-04-20T20:18:50.924Z,21.90
2019-04-20T20:21:20.371Z,21.80
2019-04-20T20:23:36.647Z,21.80
2019-04-20T20:26:07.149Z,21.60
2019-04-20T20:28:43.728Z,21.60
2019-04-20T20:31:14.498Z,21.50
2019-04-20T20:34:04.506Z,21.30
2019-04-20T20:36:28.860Z,21.10
2019-04-20T20:38:53.864Z,21.70
2019-04-20T20:41:28.154Z,21.10
2019-04-20T20:43:59.735Z,21.00
2019-04-20T20:46:29.488Z,21.10
2019-04-20T20:49:23.813Z,21.10
2019-04-20T20:51:42.753Z,21.10
2019-04-20T20:53:57.685Z,21.00
2019-04-20T20:56:24.394Z,21.00
2019-04-20T20:58:59.174Z,20.90
2019-04-20T21:01:23.721Z,20.80
2019-04-20T21:03:49.000Z,20.80
2019-04-20T21:06:18.258Z,20.80
2019-04-20T21:08:48.732Z,20.70
2019-04-20T21:11:20.321Z,20.70
2019-04-20T21:13:47.276Z,20.60
2019-04-20T21:16:19.727Z,20.60
2019-04-20T21:18:53.818Z,20.50
2019-04-20T21:21:42.755Z,20.40
2019-04-20T21:24:10.818Z,20.40
2019-04-20T21:26:42.156Z,20.40
2019-04-20T21:29:08.103Z,20.40
2019-04-20T21:31:36.633Z,20.30
2019-04-20T21:34:10.513Z,20.20
2019-04-20T21:36:34.848Z,20.20
2019-04-20T21:39:08.696Z,20.20
2019-04-20T21:41:33.935Z,20.80
2019-04-20T21:44:25.700Z,20.10
2019-04-20T21:46:54.431Z,20.30
2019-04-20T21:49:37.597Z,20.00
2019-04-20T21:51:57.708Z,19.70
2019-04-20T21:54:20.218Z,20.00
2019-04-20T21:57:11.128Z,20.00
2019-04-20T21:59:44.426Z,19.90
2019-04-20T22:02:20.928Z,19.80
2019-04-20T22:04:43.290Z,20.10
2019-04-20T22:07:12.383Z,19.90
2019-04-20T22:09:45.766Z,19.80
2019-04-20T22:12:11.945Z,19.80
2019-04-20T22:14:39.906Z,19.80
2019-04-20T22:17:31.160Z,19.70
2019-04-20T22:20:07.045Z,19.50
2019-04-20T22:22:45.481Z,19.60
2019-04-20T22:25:11.052Z,19.60
2019-04-20T22:27:30.090Z,19.50
2019-04-20T22:30:14.480Z,19.50
2019-04-20T22:33:06.100Z,19.10
2019-04-20T22:35:36.052Z,19.40
2019-04-20T22:38:22.597Z,19.40
2019-04-20T22:40:50.274Z,19.40
2019-04-20T22:43:25.903Z,19.30
2019-04-20T22:45:53.431Z,19.30
2019-04-20T22:48:20.649Z,19.30
2019-04-20T22:51:12.573Z,19.30
2019-04-20T22:53:32.961Z,19.10
2019-04-20T22:56:06.168Z,19.30
2019-04-20T22:58:27.481Z,19.10
2019-04-20T23:00:51.999Z,19.10
2019-04-20T23:03:14.715Z,19.00
2019-04-20T23:05:42.764Z,19.00
2019-04-20T23:08:10.967Z,18.90
2019-04-20T23:10:42.173Z,18.90
2019-04-20T23:13:34.349Z,18.80
2019-04-20T23:16:00.822Z,19.00
2019-04-20T23:18:26.575Z,18.80
2019-04-20T23:21:00.600Z,18.80
2019-04-20T23:23:27.007Z,18.80
2019-04-20T23:26:12.557Z,18.60
2019-04-20T23:28:48.308Z,18.80
2019-04-20T23:31:16.412Z,18.60
2019-04-20T23:33:40.226Z,18.60
2019-04-20T23:36:08.479Z,18.50
2019-04-20T23:38:37.230Z,18.50
2019-04-20T23:41:24.173Z,17.90
2019-04-20T23:44:04.581Z,18.20
2019-04-20T23:46:45.703Z,18.30
2019-04-20T23:49:29.558Z,18.30
2019-04-20T23:52:20.832Z,18.10
2019-04-20T23:54:27.890Z,17.80
2019-04-20T23:56:53.641Z,18.30
2019-04-20T23:59:29.676Z,18.30
